createdAt,value
2018-06-30T00:00:19.789Z,11.3
2018-06-30T00:01:29.900Z,11.27
2018-06-30T00:02:39.695Z,11.23
2018-06-30T00:03:49.814Z,11.19
2018-06-30T00:04:59.892Z,11.19
2018-06-30T00:06:09.693Z,11.23
2018-06-30T00:07:19.802Z,11.19
2018-06-30T00:08:29.852Z,11.13
2018-06-30T00:09:39.922Z,11.1
2018-06-30T00:10:49.715Z,11.15
2018-06-30T00:11:59.801Z,11.05
2018-06-30T00:13:09.640Z,11.1
2018-06-30T00:14:19.423Z,11.07
2018-06-30T00:15:29.215Z,11.04
2018-06-30T00:16:39.279Z,11.15
2018-06-30T00:17:49.068Z,11.13
2018-06-30T00:18:58.662Z,11.01
2018-06-30T00:20:08.732Z,10.98
2018-06-30T00:21:18.526Z,11.07
2018-06-30T00:22:28.595Z,11.04
2018-06-30T00:23:38.645Z,11
2018-06-30T00:24:48.221Z,10.92
2018-06-30T00:25:58.282Z,10.98
2018-06-30T00:27:08.096Z,10.89
2018-06-30T00:28:18.159Z,10.86
2018-06-30T00:29:27.961Z,10.86
2018-06-30T00:30:38.101Z,10.86
2018-06-30T00:31:47.913Z,10.83
2018-06-30T00:32:57.961Z,10.84
2018-06-30T00:34:07.773Z,10.83
2018-06-30T00:35:17.834Z,10.72
2018-06-30T00:36:27.677Z,10.71
2018-06-30T00:37:37.748Z,10.75
2018-06-30T00:38:47.812Z,10.76
2018-06-30T00:39:57.879Z,10.68
2018-06-30T00:41:07.402Z,10.75
2018-06-30T00:42:17.248Z,10.71
2018-06-30T00:43:27.035Z,10.75
2018-06-30T00:44:36.563Z,10.67
2018-06-30T00:45:46.630Z,10.67
2018-06-30T00:46:56.414Z,10.61
2018-06-30T00:48:05.996Z,10.59
2018-06-30T00:49:16.058Z,10.58
2018-06-30T00:50:26.120Z,10.57
2018-06-30T00:51:36.180Z,10.61
2018-06-30T00:52:45.716Z,10.57
2018-06-30T00:53:55.562Z,10.46
2018-06-30T00:55:05.084Z,10.45
2018-06-30T00:56:15.147Z,10.49
2018-06-30T00:57:25.195Z,10.51
2018-06-30T00:58:34.989Z,10.51
2018-06-30T00:59:44.834Z,10.48
2018-06-30T01:00:54.900Z,10.45
2018-06-30T01:02:04.701Z,10.48
2018-06-30T01:03:13.963Z,10.48
2018-06-30T01:04:24.035Z,10.46
2018-06-30T01:05:33.886Z,10.51
2018-06-30T01:06:43.385Z,10.42
2018-06-30T01:07:53.176Z,10.45
2018-06-30T01:09:03.241Z,10.53
2018-06-30T01:10:13.029Z,10.41
2018-06-30T01:11:23.139Z,10.43
2018-06-30T01:12:32.932Z,10.48
2018-06-30T01:13:43.002Z,10.46
2018-06-30T01:14:53.063Z,10.45
2018-06-30T01:16:03.138Z,10.36
2018-06-30T01:17:13.259Z,10.43
2018-06-30T01:18:22.536Z,10.31
2018-06-30T01:19:32.596Z,10.41
2018-06-30T01:20:42.666Z,10.25
2018-06-30T01:21:52.448Z,10.25
2018-06-30T01:23:02.548Z,10.24
2018-06-30T01:24:12.597Z,10.27
2018-06-30T01:25:22.377Z,10.25
2018-06-30T01:26:32.155Z,10.18
2018-06-30T01:27:41.707Z,10.23
2018-06-30T01:28:51.565Z,10.18
2018-06-30T01:30:01.614Z,10.13
2018-06-30T01:31:11.416Z,10.06
2018-06-30T01:32:20.925Z,10.02
2018-06-30T01:33:30.991Z,9.97
2018-06-30T01:34:40.841Z,9.95
2018-06-30T01:35:50.623Z,9.92
2018-06-30T01:37:00.144Z,9.92
2018-06-30T01:38:09.959Z,9.81
2018-06-30T01:39:19.741Z,9.77
2018-06-30T01:40:29.853Z,9.81
2018-06-30T01:41:39.912Z,9.8
2018-06-30T01:42:49.166Z,9.76
2018-06-30T01:43:59.253Z,9.69
2018-06-30T01:45:09.064Z,9.59
2018-06-30T01:46:18.638Z,9.64
2018-06-30T01:47:28.437Z,9.67
2018-06-30T01:48:38.496Z,9.64
2018-06-30T01:49:48.287Z,9.64
2018-06-30T01:50:58.347Z,9.63
2018-06-30T01:52:07.912Z,9.52
2018-06-30T01:53:17.991Z,9.58
2018-06-30T01:54:28.043Z,9.52
2018-06-30T01:55:38.109Z,9.51
2018-06-30T01:56:48.153Z,9.47
2018-06-30T01:57:57.977Z,9.54
2018-06-30T01:59:08.045Z,9.44
2018-06-30T02:00:18.115Z,9.36
2018-06-30T02:01:27.934Z,9.36
2018-06-30T02:02:37.774Z,9.37
2018-06-30T02:03:47.611Z,9.22
2018-06-30T02:04:57.681Z,9.3
2018-06-30T02:06:07.741Z,9.3
2018-06-30T02:07:17.539Z,9.18
2018-06-30T02:08:27.070Z,9.26
2018-06-30T02:09:36.909Z,9.09
2018-06-30T02:10:47.011Z,9.22
2018-06-30T02:11:57.068Z,9.18
2018-06-30T02:13:06.596Z,9.18
2018-06-30T02:14:16.664Z,9.16
2018-06-30T02:15:26.775Z,9.15
2018-06-30T02:16:36.575Z,9.13
2018-06-30T02:17:46.357Z,9.08
2018-06-30T02:18:56.163Z,9.09
2018-06-30T02:20:06.258Z,9.09
2018-06-30T02:21:15.832Z,9.12
2018-06-30T02:22:25.621Z,9
2018-06-30T02:23:35.418Z,9.09
2018-06-30T02:24:45.481Z,9.09
2018-06-30T02:25:55.550Z,9.08
2018-06-30T02:27:05.670Z,9.21
2018-06-30T02:28:15.194Z,9.21
2018-06-30T02:29:25.270Z,9.16
2018-06-30T02:30:35.064Z,9.11
2018-06-30T02:31:45.163Z,9.09
2018-06-30T02:32:55.295Z,9.09
2018-06-30T02:34:05.350Z,9.09
2018-06-30T02:35:15.417Z,9.16
2018-06-30T02:36:25.466Z,9.13
2018-06-30T02:37:35.531Z,9.11
2018-06-30T02:38:45.658Z,9.11
2018-06-30T02:39:55.738Z,9.11
2018-06-30T02:41:05.807Z,9.11
2018-06-30T02:42:15.612Z,9.02
2018-06-30T02:43:25.676Z,9.03
2018-06-30T02:44:35.830Z,9.03
2018-06-30T02:45:45.898Z,9.11
2018-06-30T02:46:56.139Z,9.08
2018-06-30T02:48:05.407Z,9.09
2018-06-30T02:49:15.198Z,9.13
2018-06-30T02:50:25.307Z,9.27
2018-06-30T02:51:35.369Z,9.27
2018-06-30T02:52:45.424Z,9.36
2018-06-30T02:53:55.222Z,9.3
2018-06-30T02:55:05.037Z,9.42
2018-06-30T02:56:15.177Z,9.47
2018-06-30T02:57:25.253Z,9.47
2018-06-30T02:58:35.046Z,9.42
2018-06-30T02:59:44.573Z,9.47
2018-06-30T03:03:33.801Z,9.51
2018-06-30T03:04:43.873Z,9.52
2018-06-30T03:05:53.945Z,9.51
2018-06-30T03:07:04.000Z,9.58
2018-06-30T03:08:13.831Z,9.63
2018-06-30T03:09:23.954Z,9.66
2018-06-30T03:10:33.216Z,9.59
2018-06-30T03:11:43.336Z,9.62
2018-06-30T03:12:53.421Z,9.64
2018-06-30T03:14:03.213Z,9.66
2018-06-30T03:15:13.044Z,9.66
2018-06-30T03:16:23.105Z,9.73
2018-06-30T03:17:33.180Z,9.69
2018-06-30T03:18:42.981Z,9.72
2018-06-30T03:19:52.506Z,9.81
2018-06-30T03:21:02.073Z,9.77
2018-06-30T03:22:12.146Z,9.8
2018-06-30T03:23:21.943Z,9.8
2018-06-30T03:24:32.032Z,9.8
2018-06-30T03:25:42.121Z,9.8
2018-06-30T03:26:51.705Z,9.8
2018-06-30T03:28:01.771Z,9.85
2018-06-30T03:29:11.841Z,9.77
2018-06-30T03:30:21.939Z,9.84
2018-06-30T03:31:31.897Z,9.85
2018-06-30T03:32:42.333Z,9.85
2018-06-30T03:33:52.396Z,9.84
2018-06-30T03:35:02.475Z,9.85
2018-06-30T03:36:12.546Z,9.85
2018-06-30T03:37:22.347Z,9.88
2018-06-30T03:38:32.697Z,9.84
2018-06-30T03:39:42.686Z,9.9
2018-06-30T03:40:52.741Z,9.92
2018-06-30T03:42:02.802Z,9.88
2018-06-30T03:43:12.902Z,9.92
2018-06-30T03:44:23.030Z,9.87
2018-06-30T03:45:33.119Z,9.91
2018-06-30T03:46:42.928Z,9.87
2018-06-30T03:47:52.992Z,9.91
2018-06-30T03:49:03.066Z,10.05
2018-06-30T03:50:12.646Z,9.99
2018-06-30T03:51:22.728Z,10.05
2018-06-30T03:52:32.533Z,9.85
2018-06-30T03:53:42.595Z,9.94
2018-06-30T03:54:52.386Z,9.94
2018-06-30T03:56:02.496Z,9.91
2018-06-30T03:57:12.021Z,9.99
2018-06-30T03:58:22.092Z,9.91
2018-06-30T03:59:32.171Z,9.91
2018-06-30T04:00:41.980Z,9.99
2018-06-30T04:01:51.594Z,9.99
2018-06-30T04:03:01.663Z,9.99
2018-06-30T04:04:11.455Z,10.05
2018-06-30T04:05:20.979Z,10.02
2018-06-30T04:06:31.039Z,10.03
2018-06-30T04:07:40.890Z,10.13
2018-06-30T04:08:50.959Z,10.12
2018-06-30T04:10:01.026Z,10.2
2018-06-30T04:11:11.095Z,10.18
2018-06-30T04:12:21.156Z,10.18
2018-06-30T04:13:31.004Z,10.2
2018-06-30T04:14:40.806Z,10.28
2018-06-30T04:15:50.897Z,10.25
2018-06-30T04:17:00.696Z,10.24
2018-06-30T04:18:09.961Z,10.39
2018-06-30T04:19:19.803Z,10.33
2018-06-30T04:20:29.328Z,10.39
2018-06-30T04:21:39.129Z,10.41
2018-06-30T04:22:48.376Z,10.57
2018-06-30T04:23:58.449Z,10.41
2018-06-30T04:25:08.555Z,10.49
2018-06-30T04:26:18.355Z,10.53
2018-06-30T04:27:28.410Z,10.53
2018-06-30T04:28:38.478Z,10.55
2018-06-30T04:29:48.543Z,10.59
2018-06-30T04:30:58.135Z,10.58
2018-06-30T04:32:07.940Z,10.61
2018-06-30T04:33:17.743Z,10.64
2018-06-30T04:34:27.553Z,10.68
2018-06-30T04:35:36.812Z,10.71
2018-06-30T04:36:46.670Z,10.75
2018-06-30T04:37:56.717Z,10.79
2018-06-30T04:39:05.986Z,10.71
2018-06-30T04:40:16.040Z,10.86
2018-06-30T04:41:26.106Z,10.76
2018-06-30T04:42:36.212Z,10.79
2018-06-30T04:43:45.738Z,10.95
2018-06-30T04:44:55.535Z,10.97
2018-06-30T04:46:05.055Z,10.92
2018-06-30T04:47:14.605Z,10.87
2018-06-30T04:48:24.727Z,10.89
2018-06-30T04:49:34.529Z,11
2018-06-30T04:50:44.596Z,10.95
2018-06-30T04:51:54.400Z,11
2018-06-30T04:53:04.210Z,11.02
2018-06-30T04:54:14.067Z,10.97
2018-06-30T04:55:23.316Z,11.01
2018-06-30T04:56:33.386Z,11.13
2018-06-30T04:57:43.219Z,11.08
2018-06-30T04:58:53.377Z,11.07
2018-06-30T05:00:03.497Z,11.07
2018-06-30T05:01:13.287Z,11.1
2018-06-30T05:02:23.351Z,11.13
2018-06-30T05:03:33.401Z,11.18
2018-06-30T05:04:42.926Z,11.2
2018-06-30T05:05:52.783Z,11.3
2018-06-30T05:07:02.591Z,11.27
2018-06-30T05:08:12.116Z,11.25
2018-06-30T05:09:21.941Z,11.31
2018-06-30T05:10:32.007Z,11.33
2018-06-30T05:11:41.861Z,11.38
2018-06-30T05:12:51.879Z,11.44
2018-06-30T05:14:02.115Z,11.41
2018-06-30T05:15:11.913Z,11.49
2018-06-30T05:16:21.978Z,11.51
2018-06-30T05:17:32.099Z,11.53
2018-06-30T05:18:41.907Z,11.58
2018-06-30T05:19:51.967Z,11.65
2018-06-30T05:21:02.101Z,11.58
2018-06-30T05:22:11.630Z,11.56
2018-06-30T05:23:21.466Z,11.65
2018-06-30T05:24:31.269Z,11.63
2018-06-30T05:25:41.347Z,11.68
2018-06-30T05:26:50.896Z,11.67
2018-06-30T05:28:00.974Z,11.65
2018-06-30T05:29:10.822Z,11.78
2018-06-30T05:30:20.885Z,11.74
2018-06-30T05:31:30.944Z,11.86
2018-06-30T05:32:40.733Z,11.85
2018-06-30T05:33:50.522Z,11.88
2018-06-30T05:35:00.636Z,11.85
2018-06-30T05:36:10.442Z,11.93
2018-06-30T05:37:20.242Z,11.99
2018-06-30T05:38:30.316Z,12.05
2018-06-30T05:39:40.427Z,11.95
2018-06-30T05:40:50.546Z,11.97
2018-06-30T05:42:00.630Z,11.97
2018-06-30T05:43:10.701Z,11.97
2018-06-30T05:44:20.234Z,12
2018-06-30T05:45:29.762Z,11.99
2018-06-30T05:46:39.891Z,11.99
2018-06-30T05:47:49.945Z,11.97
2018-06-30T05:49:00.030Z,11.99
2018-06-30T05:50:10.078Z,12.03
2018-06-30T05:51:19.883Z,12.03
2018-06-30T05:52:30.014Z,12.03
2018-06-30T05:53:40.066Z,12.08
2018-06-30T05:54:49.872Z,12.11
2018-06-30T05:55:59.934Z,12.12
2018-06-30T05:57:09.996Z,12.15
2018-06-30T05:58:19.854Z,12.12
2018-06-30T05:59:29.570Z,12.14
2018-06-30T06:00:39.682Z,12.2
2018-06-30T06:01:49.475Z,12.21
2018-06-30T06:02:58.995Z,12.14
2018-06-30T06:04:08.837Z,12.23
2018-06-30T06:05:18.900Z,12.2
2018-06-30T06:06:28.680Z,12.15
2018-06-30T06:07:37.949Z,12.14
2018-06-30T06:08:47.520Z,12.18
2018-06-30T06:09:57.960Z,12.3
2018-06-30T06:11:07.635Z,12.3
2018-06-30T06:12:17.707Z,12.36
2018-06-30T06:13:27.779Z,12.33
2018-06-30T06:14:37.864Z,12.36
2018-06-30T06:15:47.720Z,12.39
2018-06-30T06:16:57.249Z,12.3
2018-06-30T06:18:06.783Z,12.32
2018-06-30T06:19:16.583Z,12.37
2018-06-30T06:20:26.382Z,12.35
2018-06-30T06:21:35.971Z,12.39
2018-06-30T06:22:45.772Z,12.39
2018-06-30T06:23:55.572Z,12.36
2018-06-30T06:25:05.113Z,12.39
2018-06-30T06:26:14.916Z,12.47
2018-06-30T06:27:24.883Z,12.48
2018-06-30T06:28:35.075Z,12.43
2018-06-30T06:29:44.895Z,12.5
2018-06-30T06:30:54.983Z,12.37
2018-06-30T06:32:05.051Z,12.29
2018-06-30T06:33:15.171Z,12.29
2018-06-30T06:34:25.229Z,12.21
2018-06-30T06:35:35.032Z,12.15
2018-06-30T06:37:04.171Z,12.15
2018-06-30T06:38:14.587Z,12.05
2018-06-30T06:39:24.675Z,12.02
2018-06-30T06:40:35.050Z,11.97
2018-06-30T06:41:45.607Z,12.11
2018-06-30T06:42:55.995Z,12.14
2018-06-30T06:44:05.595Z,12.15
2018-06-30T06:45:15.695Z,12.08
2018-06-30T06:46:25.512Z,12
2018-06-30T06:47:35.592Z,12.07
2018-06-30T06:48:45.393Z,12.17
2018-06-30T06:49:55.248Z,12.1
2018-06-30T06:51:05.189Z,12.15
2018-06-30T06:52:14.900Z,12.25
2018-06-30T06:53:24.432Z,12.3
2018-06-30T06:54:33.693Z,12.39
2018-06-30T06:55:43.534Z,12.35
2018-06-30T06:56:53.346Z,12.35
2018-06-30T06:58:03.157Z,12.45
2018-06-30T06:59:13.015Z,12.48
2018-06-30T07:00:22.823Z,12.5
2018-06-30T07:01:32.951Z,12.63
2018-06-30T07:02:42.554Z,12.62
2018-06-30T07:03:52.629Z,12.54
2018-06-30T07:05:02.719Z,12.5
2018-06-30T07:06:12.254Z,12.62
2018-06-30T07:07:22.132Z,12.5
2018-06-30T07:08:31.897Z,12.5
2018-06-30T07:09:41.148Z,12.65
2018-06-30T07:10:50.955Z,12.66
2018-06-30T07:12:01.025Z,12.8
2018-06-30T07:13:10.874Z,12.86
2018-06-30T07:14:20.398Z,12.9
2018-06-30T07:15:29.941Z,12.95
2018-06-30T07:16:39.200Z,12.9
2018-06-30T07:17:48.999Z,12.95
2018-06-30T07:18:59.117Z,12.94
2018-06-30T07:20:09.172Z,12.98
2018-06-30T07:21:19.236Z,13.06
2018-06-30T07:22:29.098Z,13.13
2018-06-30T07:23:38.990Z,13.2
2018-06-30T07:24:49.119Z,13.27
2018-06-30T07:25:58.647Z,13.39
2018-06-30T07:27:07.895Z,13.43
2018-06-30T07:28:17.687Z,13.46
2018-06-30T07:29:27.474Z,13.54
2018-06-30T07:30:37.654Z,13.5
2018-06-30T07:31:47.261Z,13.52
2018-06-30T07:32:56.778Z,13.43
2018-06-30T07:34:06.915Z,13.5
2018-06-30T07:35:16.707Z,13.71
2018-06-30T07:36:26.857Z,13.67
2018-06-30T07:37:37.095Z,13.79
2018-06-30T07:38:46.864Z,13.67
2018-06-30T07:39:56.925Z,13.89
2018-06-30T07:41:07.011Z,13.86
2018-06-30T07:42:16.853Z,13.83
2018-06-30T07:43:26.632Z,13.76
2018-06-30T07:44:36.707Z,13.78
2018-06-30T07:45:46.242Z,13.79
2018-06-30T07:46:55.512Z,13.8
2018-06-30T07:48:05.643Z,14
2018-06-30T07:49:15.445Z,13.91
2018-06-30T07:50:25.397Z,13.97
2018-06-30T07:51:35.286Z,14.11
2018-06-30T07:52:45.532Z,14.11
2018-06-30T07:53:55.651Z,14.11
2018-06-30T07:55:05.449Z,14.15
2018-06-30T07:56:15.520Z,14.19
2018-06-30T07:57:24.789Z,14.22
2018-06-30T07:58:34.863Z,14.33
2018-06-30T07:59:45.166Z,14.36
2018-06-30T08:00:54.961Z,14.38
2018-06-30T08:02:04.688Z,14.36
2018-06-30T08:03:14.722Z,14.22
2018-06-30T08:04:24.521Z,14.28
2018-06-30T08:05:34.634Z,14.3
2018-06-30T08:06:44.426Z,14.31
2018-06-30T08:07:54.177Z,14.44
2018-06-30T08:09:03.989Z,14.45
2018-06-30T08:10:14.061Z,14.51
2018-06-30T08:11:24.218Z,14.45
2018-06-30T08:12:34.291Z,14.51
2018-06-30T08:13:44.379Z,14.66
2018-06-30T08:14:54.528Z,14.67
2018-06-30T08:16:04.068Z,14.68
2018-06-30T08:17:14.208Z,14.79
2018-06-30T08:18:24.278Z,14.78
2018-06-30T08:19:34.346Z,14.77
2018-06-30T08:20:44.119Z,14.92
2018-06-30T08:21:53.911Z,14.85
2018-06-30T08:23:03.759Z,14.99
2018-06-30T08:24:13.570Z,14.99
2018-06-30T08:25:23.371Z,15
2018-06-30T08:26:33.159Z,15.05
2018-06-30T08:27:43.213Z,15.15
2018-06-30T08:28:53.349Z,15.17
2018-06-30T08:30:03.169Z,15.23
2018-06-30T08:31:12.992Z,15.32
2018-06-30T08:32:23.064Z,15.3
2018-06-30T08:33:32.868Z,15.39
2018-06-30T08:34:42.731Z,15.44
2018-06-30T08:35:52.525Z,15.52
2018-06-30T08:37:02.604Z,15.52
2018-06-30T08:38:12.404Z,15.54
2018-06-30T08:39:22.200Z,15.65
2018-06-30T08:40:32.301Z,15.66
2018-06-30T08:41:42.442Z,15.55
2018-06-30T08:42:52.252Z,15.65
2018-06-30T08:44:02.056Z,15.59
2018-06-30T08:45:11.607Z,15.57
2018-06-30T08:46:21.732Z,15.6
2018-06-30T08:47:31.804Z,15.6
2018-06-30T08:48:41.614Z,15.63
2018-06-30T08:49:51.412Z,15.44
2018-06-30T08:51:01.204Z,15.52
2018-06-30T08:52:11.106Z,15.52
2018-06-30T08:53:20.635Z,15.62
2018-06-30T08:54:30.445Z,15.62
2018-06-30T08:55:40.662Z,15.63
2018-06-30T08:56:51.033Z,15.65
2018-06-30T08:58:00.643Z,15.69
2018-06-30T08:59:10.447Z,15.75
2018-06-30T09:00:20.504Z,15.78
2018-06-30T09:01:30.308Z,15.8
2018-06-30T09:02:40.373Z,15.92
2018-06-30T09:03:50.236Z,15.92
2018-06-30T09:05:00.025Z,15.94
2018-06-30T09:06:09.610Z,15.96
2018-06-30T09:07:19.447Z,15.91
2018-06-30T09:08:29.251Z,15.92
2018-06-30T09:09:38.830Z,15.92
2018-06-30T09:10:49.124Z,15.91
2018-06-30T09:11:59.022Z,15.92
2018-06-30T09:13:09.513Z,15.91
2018-06-30T09:14:19.359Z,15.98
2018-06-30T09:15:29.203Z,16.03
2018-06-30T09:16:38.999Z,16.09
2018-06-30T09:17:49.064Z,16.25
2018-06-30T09:18:59.122Z,16.21
2018-06-30T09:20:09.230Z,16.29
2018-06-30T09:21:19.448Z,16.4
2018-06-30T09:22:29.224Z,16.39
2018-06-30T09:23:39.046Z,16.44
2018-06-30T09:24:48.858Z,16.43
2018-06-30T09:25:58.387Z,16.49
2018-06-30T09:27:08.542Z,16.47
2018-06-30T09:28:18.609Z,16.51
2018-06-30T09:29:28.160Z,16.61
2018-06-30T09:30:38.229Z,16.64
2018-06-30T09:31:48.027Z,16.64
2018-06-30T09:32:58.151Z,16.57
2018-06-30T09:34:07.955Z,16.58
2018-06-30T09:35:18.039Z,16.58
2018-06-30T09:36:27.860Z,16.64
2018-06-30T09:37:37.654Z,16.59
2018-06-30T09:38:47.239Z,16.74
2018-06-30T09:39:57.033Z,16.66
2018-06-30T09:41:07.100Z,16.74
2018-06-30T09:42:17.160Z,16.83
2018-06-30T09:43:26.157Z,16.86
2018-06-30T09:44:36.382Z,16.94
2018-06-30T09:45:46.290Z,16.91
2018-06-30T09:46:56.373Z,17.05
2018-06-30T09:48:06.191Z,17.09
2018-06-30T09:49:16.004Z,17.1
2018-06-30T09:50:26.143Z,17.22
2018-06-30T09:51:35.951Z,17.19
2018-06-30T09:52:45.459Z,17.27
2018-06-30T09:53:54.713Z,17.35
2018-06-30T09:55:04.248Z,17.41
2018-06-30T09:56:14.369Z,17.35
2018-06-30T09:57:24.229Z,17.38
2018-06-30T09:58:34.025Z,17.35
2018-06-30T09:59:44.080Z,17.38
2018-06-30T10:00:54.141Z,17.47
2018-06-30T10:02:03.729Z,17.53
2018-06-30T10:03:13.537Z,17.5
2018-06-30T10:04:23.619Z,17.63
2018-06-30T10:05:33.682Z,17.68
2018-06-30T10:06:43.769Z,17.66
2018-06-30T10:07:53.718Z,17.76
2018-06-30T10:09:03.624Z,17.72
2018-06-30T10:10:13.808Z,17.78
2018-06-30T10:11:23.882Z,17.87
2018-06-30T10:12:33.433Z,17.88
2018-06-30T10:13:43.425Z,18
2018-06-30T10:14:52.944Z,18.05
2018-06-30T10:16:02.744Z,18.12
2018-06-30T10:17:12.551Z,18.08
2018-06-30T10:18:22.619Z,18.23
2018-06-30T10:19:32.976Z,18.21
2018-06-30T10:20:42.572Z,18.19
2018-06-30T10:21:52.754Z,18.33
2018-06-30T10:23:02.855Z,18.33
2018-06-30T10:24:12.651Z,18.28
2018-06-30T10:25:22.781Z,18.24
2018-06-30T10:26:32.851Z,18.26
2018-06-30T10:27:42.934Z,18.36
2018-06-30T10:28:53.000Z,18.37
2018-06-30T10:30:02.801Z,18.23
2018-06-30T10:31:13.023Z,18.28
2018-06-30T10:32:23.222Z,18.3
2018-06-30T10:33:33.012Z,18.36
2018-06-30T10:34:43.095Z,18.41
2018-06-30T10:35:53.183Z,18.52
2018-06-30T10:37:03.035Z,18.45
2018-06-30T10:38:12.851Z,18.52
2018-06-30T10:39:22.669Z,18.53
2018-06-30T10:40:32.223Z,18.63
2018-06-30T10:41:42.309Z,18.6
2018-06-30T10:42:51.872Z,18.7
2018-06-30T10:44:01.951Z,18.73
2018-06-30T10:45:11.231Z,18.78
2018-06-30T10:46:21.056Z,18.82
2018-06-30T10:47:31.126Z,18.91
2018-06-30T10:48:41.251Z,18.98
2018-06-30T10:49:51.313Z,19.08
2018-06-30T10:51:01.386Z,19.09
2018-06-30T10:52:11.463Z,19.15
2018-06-30T10:53:21.514Z,19.23
2018-06-30T10:54:31.641Z,19.26
2018-06-30T10:55:41.448Z,19.26
2018-06-30T10:56:50.970Z,19.3
2018-06-30T10:58:01.038Z,19.32
2018-06-30T10:59:10.603Z,19.38
2018-06-30T11:00:21.140Z,19.48
2018-06-30T11:01:31.197Z,19.48
2018-06-30T11:02:41.257Z,19.45
2018-06-30T11:03:51.122Z,19.59
2018-06-30T11:05:00.659Z,19.56
2018-06-30T11:06:10.588Z,19.55
2018-06-30T11:07:20.675Z,19.6
2018-06-30T11:08:30.477Z,19.57
2018-06-30T11:09:40.553Z,19.67
2018-06-30T11:10:49.807Z,19.71
2018-06-30T11:12:00.023Z,19.71
2018-06-30T11:13:10.100Z,19.77
2018-06-30T11:14:20.159Z,19.82
2018-06-30T11:15:30.234Z,19.81
2018-06-30T11:16:40.096Z,19.84
2018-06-30T11:17:50.221Z,19.84
2018-06-30T11:18:59.494Z,20.02
2018-06-30T11:20:09.507Z,20.03
2018-06-30T11:21:19.852Z,20.12
2018-06-30T11:22:29.591Z,20.17
2018-06-30T11:23:39.519Z,20.3
2018-06-30T11:24:49.619Z,20.24
2018-06-30T11:25:59.426Z,20.33
2018-06-30T11:27:09.233Z,20.26
2018-06-30T11:28:19.310Z,20.3
2018-06-30T11:29:29.348Z,20.37
2018-06-30T11:30:39.767Z,20.44
2018-06-30T11:31:49.565Z,20.4
2018-06-30T11:32:59.647Z,20.5
2018-06-30T11:34:09.709Z,20.63
2018-06-30T11:35:19.553Z,20.77
2018-06-30T11:36:29.337Z,21.1
2018-06-30T11:37:39.403Z,21.2
2018-06-30T11:38:49.212Z,21.7
2018-06-30T11:39:59.005Z,22.06
2018-06-30T11:41:08.861Z,22.55
2018-06-30T11:42:18.660Z,23.11
2018-06-30T11:43:28.732Z,23.66
2018-06-30T11:44:38.559Z,24.32
2018-06-30T11:45:48.627Z,24.93
2018-06-30T11:46:58.494Z,25.48
2018-06-30T11:48:08.582Z,26.08
2018-06-30T11:49:18.404Z,26.68
2018-06-30T11:50:28.642Z,27.05
2018-06-30T11:51:38.976Z,27.48
2018-06-30T11:52:48.551Z,28
2018-06-30T11:53:58.363Z,28.38
2018-06-30T11:55:07.914Z,28.84
2018-06-30T11:56:18.010Z,29.27
2018-06-30T11:57:27.824Z,29.57
2018-06-30T11:58:37.702Z,29.83
2018-06-30T11:59:47.782Z,30.17
2018-06-30T12:00:57.590Z,30.7
2018-06-30T12:02:06.938Z,31.04
2018-06-30T12:03:17.295Z,31.41
2018-06-30T12:04:27.210Z,31.72
2018-06-30T12:05:37.303Z,32.07
2018-06-30T12:06:47.127Z,32.27
2018-06-30T12:07:56.935Z,32.39
2018-06-30T12:09:05.952Z,32.46
2018-06-30T12:10:16.114Z,32.59
2018-06-30T12:11:25.940Z,32.68
2018-06-30T12:12:35.737Z,33.04
2018-06-30T12:13:45.528Z,33.12
2018-06-30T12:14:55.598Z,33.16
2018-06-30T12:16:05.471Z,33.12
2018-06-30T12:17:15.281Z,33.16
2018-06-30T12:18:25.108Z,33.08
2018-06-30T12:19:34.923Z,33.42
2018-06-30T12:20:44.735Z,33.61
2018-06-30T12:21:54.689Z,33.7
2018-06-30T12:23:04.239Z,34
2018-06-30T12:24:14.341Z,34.37
2018-06-30T12:25:24.455Z,34.51
2018-06-30T12:26:34.285Z,34.97
2018-06-30T12:27:44.170Z,35
2018-06-30T12:28:53.979Z,35.08
2018-06-30T12:30:03.800Z,35.12
2018-06-30T12:31:13.635Z,35.2
2018-06-30T12:32:23.927Z,35.39
2018-06-30T12:33:34.289Z,35.6
2018-06-30T12:34:43.823Z,35.66
2018-06-30T12:35:53.383Z,35.91
2018-06-30T12:37:03.220Z,35.94
2018-06-30T12:38:12.770Z,35.88
2018-06-30T12:39:22.110Z,36.13
2018-06-30T12:40:32.220Z,36.39
2018-06-30T12:41:42.324Z,36.59
2018-06-30T12:42:52.136Z,36.75
2018-06-30T12:44:02.227Z,37.04
2018-06-30T12:45:12.110Z,37.16
2018-06-30T12:46:22.199Z,37.25
2018-06-30T12:47:32.321Z,37.53
2018-06-30T12:48:42.432Z,37.44
2018-06-30T12:49:52.243Z,37.6
2018-06-30T12:51:01.839Z,37.61
2018-06-30T12:52:11.947Z,37.78
2018-06-30T12:53:22.054Z,37.82
2018-06-30T12:54:32.530Z,37.85
2018-06-30T12:55:43.713Z,37.85
2018-06-30T12:56:53.914Z,38.12
2018-06-30T12:58:04.024Z,38.34
2018-06-30T12:59:14.107Z,38.56
2018-06-30T13:00:24.199Z,38.7
2018-06-30T13:01:34.288Z,38.85
2018-06-30T13:02:43.886Z,38.95
2018-06-30T13:03:54.248Z,38.98
2018-06-30T13:05:04.156Z,38.82
2018-06-30T13:06:14.262Z,39.22
2018-06-30T13:07:24.362Z,39.39
2018-06-30T13:08:34.529Z,39.34
2018-06-30T13:09:44.344Z,39.19
2018-06-30T13:10:54.438Z,39.25
2018-06-30T13:12:04.268Z,39.19
2018-06-30T13:13:14.345Z,39.45
2018-06-30T13:14:23.939Z,39.64
2018-06-30T13:15:33.765Z,39.83
2018-06-30T13:16:43.583Z,39.86
2018-06-30T13:17:52.865Z,39.76
2018-06-30T13:19:02.676Z,39.93
2018-06-30T13:20:12.548Z,40.02
2018-06-30T13:21:22.632Z,40.2
2018-06-30T13:22:32.747Z,40.4
2018-06-30T13:23:42.306Z,40.4
2018-06-30T13:24:52.133Z,40.46
2018-06-30T13:26:01.999Z,40.46
2018-06-30T13:27:11.551Z,40.48
2018-06-30T13:28:21.628Z,40.74
2018-06-30T13:29:31.717Z,40.89
2018-06-30T13:30:41.814Z,40.89
2018-06-30T13:31:51.958Z,40.31
2018-06-30T13:33:01.506Z,40
2018-06-30T13:34:11.066Z,39.91
2018-06-30T13:35:21.155Z,40.2
2018-06-30T13:36:30.984Z,40.1
2018-06-30T13:37:40.850Z,40.1
2018-06-30T13:38:50.393Z,40.02
2018-06-30T13:40:00.484Z,40.2
2018-06-30T13:41:10.041Z,40.46
2018-06-30T13:42:19.606Z,40.64
2018-06-30T13:43:29.627Z,40.77
2018-06-30T13:44:39.839Z,40.77
2018-06-30T13:45:49.445Z,40.78
2018-06-30T13:46:59.273Z,40.85
2018-06-30T13:48:09.097Z,41.11
2018-06-30T13:49:18.970Z,41.37
2018-06-30T13:50:28.509Z,41.46
2018-06-30T13:51:38.338Z,41.29
2018-06-30T13:52:48.440Z,41.42
2018-06-30T13:53:58.262Z,41.51
2018-06-30T13:55:08.416Z,41.73
2018-06-30T13:56:18.241Z,41.65
2018-06-30T13:57:27.794Z,41.44
2018-06-30T13:58:37.640Z,41.55
2018-06-30T13:59:47.490Z,41.6
2018-06-30T14:00:57.189Z,41.41
2018-06-30T14:02:06.848Z,41.6
2018-06-30T14:03:16.933Z,41.61
2018-06-30T14:04:26.497Z,41.8
2018-06-30T14:05:36.325Z,41.95
2018-06-30T14:06:46.194Z,41.99
2018-06-30T14:07:56.280Z,41.91
2018-06-30T14:09:05.829Z,41.9
2018-06-30T14:10:15.938Z,42
2018-06-30T14:11:25.758Z,41.93
2018-06-30T14:12:35.615Z,42
2018-06-30T14:13:45.439Z,42.36
2018-06-30T14:14:55.273Z,42.58
2018-06-30T14:16:05.374Z,42.77
2018-06-30T14:17:14.966Z,42.92
2018-06-30T14:18:24.447Z,43.18
2018-06-30T14:19:34.116Z,43.24
2018-06-30T14:20:43.927Z,43.14
2018-06-30T14:21:53.803Z,43.29
2018-06-30T14:23:03.875Z,43.07
2018-06-30T14:24:13.474Z,43.15
2018-06-30T14:25:23.583Z,43.28
2018-06-30T14:26:33.671Z,43.56
2018-06-30T14:27:43.497Z,43.16
2018-06-30T14:28:53.587Z,43.16
2018-06-30T14:30:03.460Z,43.28
2018-06-30T14:31:13.310Z,43.44
2018-06-30T14:32:23.413Z,43.54
2018-06-30T14:33:33.532Z,43.46
2018-06-30T14:34:43.628Z,43.49
2018-06-30T14:35:53.496Z,43.66
2018-06-30T14:37:03.323Z,43.66
2018-06-30T14:38:13.153Z,43.49
2018-06-30T14:39:23.258Z,43.49
2018-06-30T14:40:33.089Z,43.41
2018-06-30T14:41:43.246Z,43.51
2018-06-30T14:42:53.347Z,43.44
2018-06-30T14:44:03.447Z,43.54
2018-06-30T14:45:13.529Z,43.58
2018-06-30T14:46:23.682Z,43.51
2018-06-30T14:47:33.575Z,43.53
2018-06-30T14:48:43.414Z,43.57
2018-06-30T14:49:53.215Z,43.57
2018-06-30T14:51:03.048Z,43.63
2018-06-30T14:52:12.336Z,43.47
2018-06-30T14:53:22.214Z,43.63
2018-06-30T14:54:32.316Z,43.51
2018-06-30T14:55:42.140Z,43.58
2018-06-30T14:56:51.971Z,43.56
2018-06-30T14:58:02.063Z,43.43
2018-06-30T14:59:11.679Z,43.41
2018-06-30T15:00:21.244Z,43.53
2018-06-30T15:01:31.082Z,42.99
2018-06-30T15:02:40.918Z,43.16
2018-06-30T15:03:51.011Z,43.41
2018-06-30T15:05:01.144Z,43.7
2018-06-30T15:06:11.223Z,44.02
2018-06-30T15:07:21.078Z,44.07
2018-06-30T15:08:31.026Z,44.18
2018-06-30T15:09:40.893Z,44.38
2018-06-30T15:10:51.040Z,44.28
2018-06-30T15:12:01.142Z,44.14